createdAt,value
2023-05-06T00:02:13.114Z,3.75
2023-05-06T00:04:41.128Z,3.15
2023-05-06T00:07:08.959Z,3.22
2023-05-06T00:09:36.767Z,3.78
2023-05-06T00:12:05.888Z,3.10
2023-05-06T00:14:33.687Z,3.13
2023-05-06T00:17:01.498Z,3.42
2023-05-06T00:19:29.214Z,3.15
2023-05-06T00:21:59.894Z,2.65
2023-05-06T00:24:27.815Z,2.92
2023-05-06T00:26:55.267Z,3.17
2023-05-06T00:29:22.733Z,3.30
2023-05-06T00:31:50.287Z,2.95
2023-05-06T00:34:18.417Z,3.05
2023-05-06T00:36:46.111Z,3.33
2023-05-06T00:39:13.658Z,2.63
2023-05-06T00:41:41.406Z,3.47
2023-05-06T00:44:09.286Z,3.15
2023-05-06T00:46:37.346Z,2.95
2023-05-06T00:49:05.331Z,2.80
2023-05-06T00:51:33.074Z,2.88
2023-05-06T00:54:02.782Z,2.67
2023-05-06T00:56:30.967Z,3.20
2023-05-06T00:59:00.422Z,2.83
2023-05-06T01:01:31.184Z,3.10
2023-05-06T01:03:59.288Z,2.67
2023-05-06T01:06:54.928Z,3.10
2023-05-06T01:09:34.213Z,3.17
2023-05-06T01:12:17.633Z,3.30
2023-05-06T01:15:21.381Z,3.15
2023-05-06T01:17:52.577Z,2.70
2023-05-06T01:20:22.617Z,3.05
2023-05-06T01:22:51.309Z,2.88
2023-05-06T01:25:20.982Z,3.08
2023-05-06T01:27:49.593Z,2.88
2023-05-06T01:30:22.489Z,3.85
2023-05-06T01:33:05.984Z,2.75
2023-05-06T01:35:54.311Z,3.15
2023-05-06T01:39:12.702Z,3.05
2023-05-06T01:41:42.448Z,2.60
2023-05-06T01:44:12.224Z,3.05
2023-05-06T01:46:43.037Z,2.97
2023-05-06T01:49:12.011Z,2.63
2023-05-06T01:51:40.044Z,3.33
2023-05-06T01:54:08.896Z,2.90
2023-05-06T01:56:36.364Z,3.03
2023-05-06T01:59:04.295Z,3.40
2023-05-06T02:01:31.996Z,3.08
2023-05-06T02:03:59.923Z,2.85
2023-05-06T02:06:31.038Z,3.28
2023-05-06T02:08:58.912Z,3.17
2023-05-06T02:11:29.951Z,2.88
2023-05-06T02:14:03.384Z,3.28
2023-05-06T02:16:34.130Z,3.65
2023-05-06T02:19:01.803Z,3.08
2023-05-06T02:21:29.420Z,3.17
2023-05-06T02:23:56.997Z,3.00
2023-05-06T02:26:24.801Z,3.10
2023-05-06T02:28:52.319Z,3.33
2023-05-06T02:31:23.027Z,2.90
2023-05-06T02:33:51.008Z,3.05
2023-05-06T02:36:18.505Z,2.97
2023-05-06T02:38:46.063Z,2.58
2023-05-06T02:41:13.468Z,3.30
2023-05-06T02:43:41.099Z,3.42
2023-05-06T02:46:08.738Z,3.63
2023-05-06T02:48:36.343Z,3.15
2023-05-06T02:51:06.543Z,3.35
2023-05-06T02:53:34.062Z,3.00
2023-05-06T02:56:01.980Z,2.97
2023-05-06T02:58:29.848Z,3.38
2023-05-06T03:00:57.404Z,3.10
2023-05-06T03:03:24.905Z,3.05
2023-05-06T03:05:52.618Z,3.00
2023-05-06T03:08:20.334Z,2.83
2023-05-06T03:10:48.001Z,3.08
2023-05-06T03:13:17.948Z,3.20
2023-05-06T03:15:45.686Z,3.05
2023-05-06T03:18:13.132Z,2.80
2023-05-06T03:20:40.966Z,2.70
2023-05-06T03:23:08.474Z,3.15
2023-05-06T03:25:36.496Z,3.10
2023-05-06T03:28:04.509Z,3.05
2023-05-06T03:30:33.925Z,2.95
2023-05-06T03:33:05.038Z,2.90
2023-05-06T03:35:34.039Z,3.22
2023-05-06T03:38:02.686Z,3.42
2023-05-06T03:40:46.990Z,2.72
2023-05-06T03:43:16.122Z,2.35
2023-05-06T03:45:47.840Z,2.85
2023-05-06T03:48:16.012Z,2.95
2023-05-06T03:50:45.020Z,2.70
2023-05-06T03:53:13.725Z,3.10
2023-05-06T03:55:44.047Z,2.90
2023-05-06T03:58:13.587Z,2.60
2023-05-06T04:00:43.428Z,3.05
2023-05-06T04:03:11.433Z,2.60
2023-05-06T04:05:50.817Z,2.78
2023-05-06T04:08:21.874Z,2.47
2023-05-06T04:10:49.627Z,3.00
2023-05-06T04:13:26.179Z,2.55
2023-05-06T04:15:54.359Z,2.38
2023-05-06T04:18:26.851Z,2.58
2023-05-06T04:21:00.456Z,2.95
2023-05-06T04:23:30.313Z,2.60
2023-05-06T04:25:59.524Z,2.20
2023-05-06T04:28:28.869Z,2.10
2023-05-06T04:30:56.836Z,2.70
2023-05-06T04:33:33.037Z,2.50
2023-05-06T04:36:03.599Z,2.45
2023-05-06T04:38:34.121Z,2.42
2023-05-06T04:41:01.818Z,2.50
2023-05-06T04:43:29.697Z,2.45
2023-05-06T04:46:05.598Z,2.47
2023-05-06T04:48:37.353Z,2.28
2023-05-06T04:51:06.097Z,2.30
2023-05-06T04:53:34.502Z,2.03
2023-05-06T04:56:02.794Z,2.00
2023-05-06T04:58:32.076Z,2.05
2023-05-06T05:01:05.823Z,1.95
2023-05-06T05:03:33.927Z,2.30
2023-05-06T05:06:03.824Z,2.17
2023-05-06T05:08:32.061Z,2.55
2023-05-06T05:10:59.860Z,2.20
2023-05-06T05:13:29.771Z,2.05
2023-05-06T05:15:57.908Z,2.42
2023-05-06T05:18:29.445Z,2.10
2023-05-06T05:21:02.563Z,1.60
2023-05-06T05:23:30.868Z,1.48
2023-05-06T05:25:59.331Z,2.00
2023-05-06T05:28:26.996Z,2.05
2023-05-06T05:31:02.748Z,1.60
2023-05-06T05:33:31.722Z,2.10
2023-05-06T05:36:00.066Z,2.40
2023-05-06T05:38:29.402Z,1.75
2023-05-06T05:40:57.338Z,1.85
2023-05-06T05:43:27.161Z,2.00
2023-05-06T05:45:56.016Z,1.48
2023-05-06T05:48:24.100Z,1.73
2023-05-06T05:50:52.392Z,2.10
2023-05-06T05:53:21.109Z,1.75
2023-05-06T05:55:48.587Z,1.70
2023-05-06T05:58:16.152Z,1.88
2023-05-06T06:00:45.457Z,1.80
2023-05-06T06:03:18.515Z,1.80
2023-05-06T06:05:46.501Z,1.85
2023-05-06T06:08:14.776Z,1.50
2023-05-06T06:10:42.526Z,1.88
2023-05-06T06:13:15.464Z,1.73
2023-05-06T06:15:43.149Z,1.98
2023-05-06T06:18:10.858Z,1.67
2023-05-06T06:20:39.687Z,1.48
2023-05-06T06:23:07.737Z,1.63
2023-05-06T06:25:35.430Z,1.60
2023-05-06T06:28:03.040Z,2.00
2023-05-06T06:30:30.752Z,1.38
2023-05-06T06:33:00.360Z,1.77
2023-05-06T06:35:28.608Z,1.63
2023-05-06T06:37:56.341Z,1.90
2023-05-06T06:40:23.859Z,1.77
2023-05-06T06:42:51.404Z,1.75
2023-05-06T06:45:37.682Z,1.65
2023-05-06T06:48:05.625Z,1.48
2023-05-06T06:50:33.338Z,1.80
2023-05-06T06:53:00.918Z,1.75
2023-05-06T06:55:28.581Z,1.40
2023-05-06T06:57:56.091Z,1.52
2023-05-06T07:00:24.954Z,1.65
2023-05-06T07:02:52.707Z,1.50
2023-05-06T07:05:20.555Z,1.35
2023-05-06T07:07:48.109Z,1.40
2023-05-06T07:10:15.944Z,1.17
2023-05-06T07:12:43.499Z,1.85
2023-05-06T07:15:11.910Z,2.25
2023-05-06T07:17:39.801Z,1.40
2023-05-06T07:20:08.866Z,1.23
2023-05-06T07:22:36.663Z,1.40
2023-05-06T07:25:04.411Z,1.60
2023-05-06T07:27:32.012Z,1.50
2023-05-06T07:29:59.710Z,1.30
2023-05-06T07:32:27.139Z,1.42
2023-05-06T07:34:54.603Z,1.40
2023-05-06T07:37:22.338Z,1.30
2023-05-06T07:39:49.865Z,1.35
2023-05-06T07:42:17.565Z,1.52
2023-05-06T07:44:45.078Z,1.35
2023-05-06T07:47:14.844Z,1.50
2023-05-06T07:49:42.794Z,1.00
2023-05-06T07:52:10.346Z,1.50
2023-05-06T07:54:37.917Z,1.50
2023-05-06T07:57:05.471Z,1.30
2023-05-06T07:59:33.122Z,1.33
2023-05-06T08:02:00.726Z,1.40
2023-05-06T08:04:28.521Z,1.30
2023-05-06T08:06:57.588Z,1.60
2023-05-06T08:09:25.478Z,1.30
2023-05-06T08:11:54.167Z,1.30
2023-05-06T08:14:21.840Z,1.80
2023-05-06T08:16:51.089Z,1.40
2023-05-06T08:19:18.847Z,1.40
2023-05-06T08:21:46.336Z,1.10
2023-05-06T08:24:14.017Z,1.40
2023-05-06T08:26:41.917Z,1.40
2023-05-06T08:29:09.632Z,1.45
2023-05-06T08:31:37.310Z,1.05
2023-05-06T08:34:04.808Z,1.65
2023-05-06T08:36:32.587Z,1.33
2023-05-06T08:38:59.939Z,1.40
2023-05-06T08:41:31.084Z,1.13
2023-05-06T08:44:01.398Z,1.05
2023-05-06T08:46:31.202Z,1.27
2023-05-06T08:49:00.146Z,1.40
2023-05-06T08:51:31.972Z,1.40
2023-05-06T08:54:05.045Z,1.27
2023-05-06T08:56:34.311Z,1.48
2023-05-06T08:59:02.321Z,1.17
2023-05-06T09:01:30.215Z,1.50
2023-05-06T09:03:58.803Z,1.27
2023-05-06T09:06:27.365Z,1.38
2023-05-06T09:08:54.814Z,1.10
2023-05-06T09:11:29.716Z,1.40
2023-05-06T09:14:18.287Z,1.25
2023-05-06T09:16:49.796Z,1.05
2023-05-06T09:19:20.075Z,1.30
2023-05-06T09:21:50.820Z,1.20
2023-05-06T09:24:19.297Z,1.30
2023-05-06T09:26:48.244Z,1.33
2023-05-06T09:29:19.086Z,1.20
2023-05-06T09:31:48.243Z,1.20
2023-05-06T09:34:18.229Z,1.10
2023-05-06T09:36:45.856Z,1.40
2023-05-06T09:39:13.627Z,1.38
2023-05-06T09:41:41.589Z,1.40
2023-05-06T09:44:11.465Z,1.45
2023-05-06T09:46:41.024Z,1.38
2023-05-06T09:49:09.204Z,1.48
2023-05-06T09:51:37.305Z,1.38
2023-05-06T09:54:05.654Z,1.45
2023-05-06T09:56:34.644Z,1.65
2023-05-06T09:59:04.395Z,1.35
2023-05-06T10:01:37.220Z,1.50
2023-05-06T10:04:09.252Z,1.52
2023-05-06T10:06:40.280Z,1.58
2023-05-06T10:09:11.565Z,1.50
2023-05-06T10:11:39.742Z,1.67
2023-05-06T10:14:08.409Z,1.63
2023-05-06T10:16:37.792Z,1.60
2023-05-06T10:19:08.522Z,1.60
2023-05-06T10:21:40.907Z,1.52
2023-05-06T10:24:16.569Z,1.65
2023-05-06T10:26:49.658Z,1.85
2023-05-06T10:29:18.467Z,1.65
2023-05-06T10:31:54.647Z,2.10
2023-05-06T10:34:23.643Z,1.77
2023-05-06T10:36:56.768Z,1.55
2023-05-06T10:39:25.061Z,1.80
2023-05-06T10:41:52.806Z,1.63
2023-05-06T10:44:59.510Z,2.00
2023-05-06T10:47:27.724Z,1.58
2023-05-06T10:50:24.404Z,2.33
2023-05-06T10:52:58.016Z,4.97
2023-05-06T10:55:34.362Z,6.07
2023-05-06T10:58:16.295Z,7.60
2023-05-06T11:00:55.655Z,8.00
2023-05-06T11:03:24.879Z,8.38
2023-05-06T11:05:53.344Z,10.40
2023-05-06T11:08:26.630Z,8.35
2023-05-06T11:10:55.093Z,9.45
2023-05-06T11:13:28.691Z,9.63
2023-05-06T11:15:58.571Z,8.38
2023-05-06T11:18:27.215Z,8.50
2023-05-06T11:21:03.749Z,8.32
2023-05-06T11:23:52.477Z,7.95
2023-05-06T11:26:20.563Z,8.90
2023-05-06T11:28:50.570Z,7.82
2023-05-06T11:31:19.210Z,7.97
2023-05-06T11:33:52.842Z,7.72
2023-05-06T11:36:22.018Z,8.40
2023-05-06T11:38:53.381Z,8.07
2023-05-06T11:41:23.189Z,7.45
2023-05-06T11:43:55.463Z,7.13
2023-05-06T11:46:25.639Z,6.80
2023-05-06T11:48:53.297Z,6.97
2023-05-06T11:51:24.600Z,7.07
2023-05-06T11:54:03.899Z,6.85
2023-05-06T11:56:31.574Z,5.63
2023-05-06T11:58:59.075Z,6.50
2023-05-06T12:01:26.543Z,6.75
2023-05-06T12:03:56.296Z,7.07
2023-05-06T12:06:35.274Z,5.90
2023-05-06T12:09:06.616Z,6.40
2023-05-06T12:11:35.742Z,5.82
2023-05-06T12:14:06.638Z,5.75
2023-05-06T12:16:36.016Z,5.80
2023-05-06T12:19:04.775Z,6.80
2023-05-06T12:21:33.295Z,6.05
2023-05-06T12:24:01.911Z,4.90
2023-05-06T12:26:31.508Z,5.47
2023-05-06T12:29:11.564Z,5.22
2023-05-06T12:31:39.657Z,4.85
2023-05-06T12:34:07.369Z,4.63
2023-05-06T12:36:41.373Z,4.75
2023-05-06T12:39:09.842Z,4.68
2023-05-06T12:41:43.735Z,4.57
2023-05-06T12:44:33.810Z,3.97
2023-05-06T12:47:09.143Z,4.55
2023-05-06T12:50:01.128Z,4.13
2023-05-06T12:52:30.909Z,4.18
2023-05-06T12:55:01.849Z,4.20
2023-05-06T12:57:29.357Z,3.75
2023-05-06T12:59:57.091Z,3.80
2023-05-06T13:02:24.976Z,4.00
2023-05-06T13:04:52.797Z,4.28
2023-05-06T13:07:20.827Z,3.88
2023-05-06T13:09:48.499Z,4.63
2023-05-06T13:12:17.161Z,3.72
2023-05-06T13:14:44.645Z,3.28
2023-05-06T13:17:12.259Z,3.58
2023-05-06T13:19:40.052Z,3.35
2023-05-06T13:22:07.846Z,3.15
2023-05-06T13:24:35.659Z,3.45
2023-05-06T13:27:03.520Z,3.63
2023-05-06T13:29:31.085Z,3.40
2023-05-06T13:31:58.935Z,3.08
2023-05-06T13:34:26.965Z,3.97
2023-05-06T13:36:55.323Z,3.38
2023-05-06T13:39:23.298Z,3.40
2023-05-06T13:41:51.813Z,3.63
2023-05-06T13:44:22.702Z,3.17
2023-05-06T13:46:50.489Z,3.38
2023-05-06T13:49:19.258Z,3.97
2023-05-06T13:51:46.978Z,3.13
2023-05-06T13:54:14.560Z,2.67
2023-05-06T13:56:41.951Z,3.50
2023-05-06T13:59:11.384Z,3.10
2023-05-06T14:01:39.377Z,3.03
2023-05-06T14:04:07.024Z,3.20
2023-05-06T14:06:34.788Z,2.50
2023-05-06T14:09:02.619Z,2.50
2023-05-06T14:11:30.085Z,2.70
2023-05-06T14:13:57.643Z,3.22
2023-05-06T14:16:25.179Z,3.15
2023-05-06T14:18:52.944Z,3.17
2023-05-06T14:21:21.076Z,3.35
2023-05-06T14:23:48.771Z,3.33
2023-05-06T14:26:16.132Z,2.85
2023-05-06T14:28:44.016Z,2.60
2023-05-06T14:31:11.812Z,2.97
2023-05-06T14:33:39.554Z,2.65
2023-05-06T14:36:07.697Z,3.17
2023-05-06T14:38:35.204Z,2.28
2023-05-06T14:41:02.843Z,2.60
2023-05-06T14:43:30.431Z,2.90
2023-05-06T14:45:58.188Z,2.60
2023-05-06T14:48:25.856Z,2.65
2023-05-06T14:50:53.777Z,2.80
2023-05-06T14:53:21.375Z,3.03
2023-05-06T14:55:49.159Z,3.00
2023-05-06T14:58:16.853Z,2.67
2023-05-06T15:00:45.123Z,2.25
2023-05-06T15:03:12.726Z,2.75
2023-05-06T15:05:40.739Z,2.75
2023-05-06T15:08:08.984Z,2.47
2023-05-06T15:10:37.131Z,2.85
2023-05-06T15:13:05.003Z,2.55
2023-05-06T15:15:32.577Z,3.30
2023-05-06T15:18:00.189Z,2.88
2023-05-06T15:20:27.833Z,2.90
2023-05-06T15:22:55.766Z,2.88
2023-05-06T15:25:34.344Z,2.63
2023-05-06T15:28:03.232Z,2.35
2023-05-06T15:30:30.900Z,2.92
2023-05-06T15:32:58.639Z,3.78
2023-05-06T15:35:30.028Z,3.17
2023-05-06T15:38:00.658Z,4.28
2023-05-06T15:40:28.591Z,3.60
2023-05-06T15:42:56.455Z,3.65
2023-05-06T15:45:23.885Z,2.95
2023-05-06T15:47:52.005Z,3.50
2023-05-06T15:50:32.780Z,3.97
2023-05-06T15:53:02.347Z,5.13
2023-05-06T15:55:35.312Z,3.45
2023-05-06T15:58:14.070Z,3.83
2023-05-06T16:00:41.910Z,4.03
2023-05-06T16:03:11.824Z,5.18
2023-05-06T16:05:40.402Z,5.88
2023-05-06T16:08:08.092Z,5.25
2023-05-06T16:10:35.906Z,5.18
2023-05-06T16:13:04.021Z,4.90
2023-05-06T16:15:31.720Z,5.60
2023-05-06T16:17:59.377Z,6.43
2023-05-06T16:20:26.927Z,6.10
2023-05-06T16:22:54.536Z,6.13
2023-05-06T16:25:22.066Z,6.13
2023-05-06T16:27:50.022Z,6.30
2023-05-06T16:30:18.233Z,5.22
2023-05-06T16:32:46.184Z,5.45
2023-05-06T16:35:14.150Z,5.20
2023-05-06T16:37:43.927Z,4.95
2023-05-06T16:40:21.059Z,6.03
2023-05-06T16:42:50.380Z,5.18
2023-05-06T16:45:18.230Z,5.88
2023-05-06T16:47:46.572Z,6.15
2023-05-06T16:50:14.367Z,5.63
2023-05-06T16:52:42.084Z,5.68
2023-05-06T16:55:09.934Z,6.35
2023-05-06T16:57:38.011Z,5.63
2023-05-06T17:00:12.362Z,5.43
2023-05-06T17:02:40.987Z,5.18
2023-05-06T17:05:09.275Z,5.38
2023-05-06T17:07:37.001Z,5.63
2023-05-06T17:10:05.605Z,4.95
2023-05-06T17:12:33.661Z,5.55
2023-05-06T17:15:01.574Z,5.47
2023-05-06T17:17:29.108Z,5.65
2023-05-06T17:19:57.860Z,4.82
2023-05-06T17:22:26.578Z,5.30
2023-05-06T17:24:54.464Z,5.50
2023-05-06T17:27:22.166Z,5.38
2023-05-06T17:29:50.057Z,5.45
2023-05-06T17:32:17.650Z,6.70
2023-05-06T17:34:46.071Z,6.15
2023-05-06T17:37:13.689Z,5.15
2023-05-06T17:39:41.667Z,4.78
2023-05-06T17:42:10.519Z,5.00
2023-05-06T17:44:38.385Z,4.88
2023-05-06T17:47:06.057Z,4.65
2023-05-06T17:49:34.672Z,4.78
2023-05-06T17:52:02.670Z,4.90
2023-05-06T17:54:35.003Z,4.53
2023-05-06T17:57:03.743Z,4.40
2023-05-06T17:59:31.734Z,4.13
2023-05-06T18:02:00.698Z,4.07
2023-05-06T18:04:28.444Z,4.18
2023-05-06T18:06:56.166Z,4.63
2023-05-06T18:09:24.177Z,3.67
2023-05-06T18:11:51.962Z,3.97
2023-05-06T18:14:19.440Z,4.25
2023-05-06T18:16:46.942Z,4.50
2023-05-06T18:19:14.692Z,4.78
2023-05-06T18:21:42.336Z,4.90
2023-05-06T18:24:15.913Z,5.15
2023-05-06T18:26:46.304Z,4.22
2023-05-06T18:29:14.096Z,4.50
2023-05-06T18:31:42.525Z,4.20
2023-05-06T18:34:13.788Z,4.28
2023-05-06T18:36:41.335Z,5.03
2023-05-06T18:39:09.132Z,4.28
2023-05-06T18:41:36.615Z,4.35
2023-05-06T18:44:04.705Z,4.43
2023-05-06T18:46:32.215Z,4.22
2023-05-06T18:49:01.324Z,4.55
2023-05-06T18:51:29.337Z,4.25
2023-05-06T18:53:56.760Z,4.93
2023-05-06T18:56:24.606Z,4.30
2023-05-06T18:58:52.467Z,4.15
2023-05-06T19:01:20.148Z,4.30
2023-05-06T19:03:47.862Z,5.20
2023-05-06T19:06:15.767Z,4.57
2023-05-06T19:08:43.771Z,4.65
2023-05-06T19:11:21.460Z,4.53
2023-05-06T19:13:51.568Z,4.63
2023-05-06T19:16:19.396Z,4.88
2023-05-06T19:18:48.120Z,4.68
2023-05-06T19:21:16.042Z,4.22
2023-05-06T19:23:43.693Z,4.72
2023-05-06T19:26:12.279Z,4.50
2023-05-06T19:28:43.026Z,4.80
2023-05-06T19:31:11.936Z,4.18
2023-05-06T19:33:41.207Z,4.72
2023-05-06T19:36:11.095Z,4.45
2023-05-06T19:38:39.185Z,4.43
2023-05-06T19:41:08.732Z,4.20
2023-05-06T19:43:43.168Z,4.78
2023-05-06T19:46:12.462Z,4.90
2023-05-06T19:48:40.352Z,4.85
2023-05-06T19:51:08.397Z,5.95
2023-05-06T19:53:37.269Z,5.68
2023-05-06T19:56:13.133Z,7.00
2023-05-06T19:58:41.351Z,5.78
2023-05-06T20:01:09.594Z,5.07
2023-05-06T20:03:37.596Z,4.68
2023-05-06T20:06:05.452Z,5.65
2023-05-06T20:08:35.847Z,4.70
2023-05-06T20:11:03.385Z,5.00
2023-05-06T20:13:30.886Z,4.90
2023-05-06T20:15:58.447Z,5.32
2023-05-06T20:18:25.999Z,4.78
2023-05-06T20:20:53.880Z,5.20
2023-05-06T20:23:21.316Z,4.72
2023-05-06T20:25:49.007Z,5.13
2023-05-06T20:28:18.696Z,4.80
2023-05-06T20:30:46.604Z,5.03
2023-05-06T20:33:14.277Z,5.05
2023-05-06T20:35:42.901Z,5.20
2023-05-06T20:38:11.219Z,5.03
2023-05-06T20:40:38.967Z,4.68
2023-05-06T20:43:06.824Z,5.28
2023-05-06T20:45:34.853Z,5.68
2023-05-06T20:48:02.806Z,4.93
2023-05-06T20:50:31.069Z,4.78
2023-05-06T20:53:00.477Z,4.70
2023-05-06T20:55:28.100Z,4.65
2023-05-06T20:57:55.628Z,4.78
2023-05-06T21:00:23.690Z,5.03
2023-05-06T21:02:51.390Z,4.45
2023-05-06T21:05:19.140Z,5.20
2023-05-06T21:07:47.068Z,4.57
2023-05-06T21:10:14.872Z,4.07
2023-05-06T21:12:48.975Z,4.10
2023-05-06T21:15:17.014Z,4.20
2023-05-06T21:17:44.906Z,4.35
2023-05-06T21:20:13.494Z,4.40
2023-05-06T21:22:41.355Z,3.83
2023-05-06T21:25:09.883Z,5.10
2023-05-06T21:27:37.614Z,4.80
2023-05-06T21:30:06.049Z,4.45
2023-05-06T21:32:33.878Z,4.65
2023-05-06T21:35:03.676Z,4.35
2023-05-06T21:37:31.518Z,4.20
2023-05-06T21:40:00.268Z,3.92
2023-05-06T21:42:28.291Z,3.97
2023-05-06T21:44:56.136Z,4.22
2023-05-06T21:47:23.799Z,3.90
2023-05-06T21:49:51.381Z,4.38
2023-05-06T21:52:19.061Z,4.15
2023-05-06T21:54:47.063Z,4.10
2023-05-06T21:57:14.935Z,3.92
2023-05-06T21:59:42.894Z,4.47
2023-05-06T22:02:10.980Z,3.83
2023-05-06T22:04:38.748Z,4.22
2023-05-06T22:07:07.160Z,3.70
2023-05-06T22:09:36.179Z,4.30
2023-05-06T22:12:07.045Z,3.40
2023-05-06T22:14:41.131Z,4.07
2023-05-06T22:17:10.839Z,4.03
2023-05-06T22:19:39.041Z,4.13
2023-05-06T22:22:07.236Z,3.63
2023-05-06T22:24:34.924Z,3.55
2023-05-06T22:27:03.370Z,4.10
2023-05-06T22:29:31.143Z,3.72
2023-05-06T22:31:59.017Z,3.65
2023-05-06T22:34:26.838Z,3.67
2023-05-06T22:36:54.544Z,4.13
2023-05-06T22:39:22.244Z,4.10
2023-05-06T22:41:51.274Z,3.97
2023-05-06T22:44:19.010Z,4.57
2023-05-06T22:46:46.732Z,4.13
2023-05-06T22:49:14.692Z,3.60
2023-05-06T22:51:42.819Z,4.40
2023-05-06T22:54:10.427Z,3.95
2023-05-06T22:56:38.407Z,4.20
2023-05-06T22:59:06.288Z,4.70
2023-05-06T23:01:34.377Z,3.92
2023-05-06T23:04:02.196Z,3.67
2023-05-06T23:06:31.354Z,4.57
2023-05-06T23:08:58.918Z,4.13
2023-05-06T23:11:26.709Z,4.03
2023-05-06T23:13:54.199Z,4.28
2023-05-06T23:16:22.066Z,3.67
2023-05-06T23:18:49.872Z,3.90
2023-05-06T23:21:26.984Z,3.85
2023-05-06T23:23:54.400Z,4.03
2023-05-06T23:26:22.246Z,4.80
2023-05-06T23:28:49.851Z,4.35
2023-05-06T23:31:17.632Z,4.55
2023-05-06T23:33:45.411Z,4.82
2023-05-06T23:36:12.917Z,4.03
2023-05-06T23:38:40.678Z,4.25
2023-05-06T23:41:08.374Z,5.22
2023-05-06T23:43:35.962Z,4.00
2023-05-06T23:46:03.759Z,3.92
2023-05-06T23:48:31.209Z,3.97
2023-05-06T23:50:58.846Z,4.70
2023-05-06T23:53:26.734Z,3.78
2023-05-06T23:55:54.365Z,4.50
2023-05-06T23:58:21.848Z,4.50
